sensor_id;sensor_type;location;lat;lon;timestamp;P1;durP1;ratioP1;P2;durP2;ratioP2
21472;SDS011;10898;48.072;11.682;2023-01-13T00:00:08;2.05;;;1.80;;
21472;SDS011;10898;48.072;11.682;2023-01-13T00:04:13;1.70;;;1.60;;
21472;SDS011;10898;48.072;11.682;2023-01-13T00:06:19;2.15;;;1.50;;
21472;SDS011;10898;48.072;11.682;2023-01-13T00:08:21;1.90;;;1.48;;
21472;SDS011;10898;48.072;11.682;2023-01-13T00:10:23;2.05;;;1.55;;
21472;SDS011;10898;48.072;11.682;2023-01-13T00:12:25;2.17;;;1.77;;
21472;SDS011;10898;48.072;11.682;2023-01-13T00:14:27;1.80;;;1.70;;
21472;SDS011;10898;48.072;11.682;2023-01-13T00:16:30;2.13;;;1.92;;
21472;SDS011;10898;48.072;11.682;2023-01-13T00:18:33;2.25;;;1.63;;
21472;SDS011;10898;48.072;11.682;2023-01-13T00:20:37;1.77;;;1.50;;
21472;SDS011;10898;48.072;11.682;2023-01-13T00:22:39;2.08;;;1.48;;
21472;SDS011;10898;48.072;11.682;2023-01-13T00:24:41;2.63;;;1.48;;
21472;SDS011;10898;48.072;11.682;2023-01-13T00:26:43;4.18;;;1.70;;
21472;SDS011;10898;48.072;11.682;2023-01-13T00:28:46;1.77;;;1.45;;
21472;SDS011;10898;48.072;11.682;2023-01-13T00:30:48;2.05;;;1.50;;
21472;SDS011;10898;48.072;11.682;2023-01-13T00:32:50;1.65;;;1.40;;
21472;SDS011;10898;48.072;11.682;2023-01-13T00:34:52;3.97;;;1.60;;
21472;SDS011;10898;48.072;11.682;2023-01-13T00:36:55;2.22;;;1.27;;
21472;SDS011;10898;48.072;11.682;2023-01-13T00:38:58;1.98;;;1.42;;
21472;SDS011;10898;48.072;11.682;2023-01-13T00:41:07;2.60;;;1.50;;
21472;SDS011;10898;48.072;11.682;2023-01-13T00:43:09;1.95;;;1.00;;
21472;SDS011;10898;48.072;11.682;2023-01-13T00:45:23;2.67;;;1.17;;
21472;SDS011;10898;48.072;11.682;2023-01-13T00:47:25;2.33;;;1.60;;
21472;SDS011;10898;48.072;11.682;2023-01-13T00:49:27;1.90;;;1.02;;
21472;SDS011;10898;48.072;11.682;2023-01-13T00:51:30;1.88;;;1.70;;
21472;SDS011;10898;48.072;11.682;2023-01-13T00:53:33;1.73;;;1.27;;
21472;SDS011;10898;48.072;11.682;2023-01-13T00:55:35;1.98;;;1.02;;
21472;SDS011;10898;48.072;11.682;2023-01-13T00:57:37;2.50;;;1.20;;
21472;SDS011;10898;48.072;11.682;2023-01-13T00:59:40;1.73;;;1.10;;
21472;SDS011;10898;48.072;11.682;2023-01-13T01:01:42;3.17;;;1.38;;
21472;SDS011;10898;48.072;11.682;2023-01-13T01:03:48;1.02;;;0.90;;
21472;SDS011;10898;48.072;11.682;2023-01-13T01:05:50;1.17;;;1.10;;
21472;SDS011;10898;48.072;11.682;2023-01-13T01:07:52;1.00;;;1.00;;
21472;SDS011;10898;48.072;11.682;2023-01-13T01:09:54;1.17;;;1.10;;
21472;SDS011;10898;48.072;11.682;2023-01-13T01:11:57;2.33;;;1.13;;
21472;SDS011;10898;48.072;11.682;2023-01-13T01:14:01;0.93;;;0.93;;
21472;SDS011;10898;48.072;11.682;2023-01-13T01:16:07;1.42;;;0.93;;
21472;SDS011;10898;48.072;11.682;2023-01-13T01:18:09;0.82;;;0.82;;
21472;SDS011;10898;48.072;11.682;2023-01-13T01:20:12;2.65;;;1.20;;
21472;SDS011;10898;48.072;11.682;2023-01-13T01:22:14;1.50;;;0.88;;
21472;SDS011;10898;48.072;11.682;2023-01-13T01:24:16;1.85;;;1.23;;
21472;SDS011;10898;48.072;11.682;2023-01-13T01:26:19;1.70;;;1.10;;
21472;SDS011;10898;48.072;11.682;2023-01-13T01:28:22;1.35;;;1.08;;
21472;SDS011;10898;48.072;11.682;2023-01-13T01:30:25;1.17;;;1.08;;
21472;SDS011;10898;48.072;11.682;2023-01-13T01:32:27;1.52;;;0.98;;
21472;SDS011;10898;48.072;11.682;2023-01-13T01:34:29;1.95;;;1.10;;
21472;SDS011;10898;48.072;11.682;2023-01-13T01:36:32;0.90;;;0.90;;
21472;SDS011;10898;48.072;11.682;2023-01-13T01:38:35;2.15;;;0.90;;
21472;SDS011;10898;48.072;11.682;2023-01-13T01:40:37;0.90;;;0.90;;
21472;SDS011;10898;48.072;11.682;2023-01-13T01:42:40;0.85;;;0.85;;
21472;SDS011;10898;48.072;11.682;2023-01-13T01:45:02;1.27;;;0.90;;
21472;SDS011;10898;48.072;11.682;2023-01-13T01:47:12;2.25;;;0.95;;
21472;SDS011;10898;48.072;11.682;2023-01-13T01:49:25;0.85;;;0.85;;
21472;SDS011;10898;48.072;11.682;2023-01-13T01:51:29;0.80;;;0.80;;
21472;SDS011;10898;48.072;11.682;2023-01-13T01:53:33;4.60;;;0.98;;
21472;SDS011;10898;48.072;11.682;2023-01-13T01:55:35;1.95;;;0.95;;
21472;SDS011;10898;48.072;11.682;2023-01-13T01:57:40;2.65;;;1.00;;
21472;SDS011;10898;48.072;11.682;2023-01-13T01:59:43;1.48;;;0.90;;
21472;SDS011;10898;48.072;11.682;2023-01-13T02:01:45;1.10;;;0.85;;
21472;SDS011;10898;48.072;11.682;2023-01-13T02:03:53;0.70;;;0.70;;
21472;SDS011;10898;48.072;11.682;2023-01-13T02:05:56;1.52;;;0.82;;
21472;SDS011;10898;48.072;11.682;2023-01-13T02:07:58;1.20;;;0.80;;
21472;SDS011;10898;48.072;11.682;2023-01-13T02:12:03;2.28;;;0.80;;
21472;SDS011;10898;48.072;11.682;2023-01-13T02:14:25;3.20;;;1.00;;
21472;SDS011;10898;48.072;11.682;2023-01-13T02:16:28;1.38;;;0.70;;
21472;SDS011;10898;48.072;11.682;2023-01-13T02:18:35;1.25;;;1.00;;
21472;SDS011;10898;48.072;11.682;2023-01-13T02:32:30;1.75;;;1.00;;
21472;SDS011;10898;48.072;11.682;2023-01-13T02:34:46;0.88;;;0.80;;
21472;SDS011;10898;48.072;11.682;2023-01-13T02:36:50;0.95;;;0.90;;
21472;SDS011;10898;48.072;11.682;2023-01-13T02:38:56;1.13;;;0.90;;
21472;SDS011;10898;48.072;11.682;2023-01-13T02:41:06;0.80;;;0.80;;
21472;SDS011;10898;48.072;11.682;2023-01-13T02:43:31;1.15;;;0.90;;
21472;SDS011;10898;48.072;11.682;2023-01-13T02:45:56;1.05;;;0.85;;
21472;SDS011;10898;48.072;11.682;2023-01-13T02:47:59;1.15;;;0.90;;
21472;SDS011;10898;48.072;11.682;2023-01-13T02:50:06;0.77;;;0.70;;
21472;SDS011;10898;48.072;11.682;2023-01-13T02:52:14;1.70;;;0.90;;
21472;SDS011;10898;48.072;11.682;2023-01-13T02:54:19;1.00;;;0.90;;
21472;SDS011;10898;48.072;11.682;2023-01-13T02:56:22;1.30;;;0.95;;
21472;SDS011;10898;48.072;11.682;2023-01-13T02:58:26;1.08;;;0.95;;
21472;SDS011;10898;48.072;11.682;2023-01-13T03:00:29;1.38;;;0.80;;
21472;SDS011;10898;48.072;11.682;2023-01-13T03:02:33;1.58;;;0.82;;
21472;SDS011;10898;48.072;11.682;2023-01-13T03:04:46;0.82;;;0.82;;
21472;SDS011;10898;48.072;11.682;2023-01-13T03:08:58;1.00;;;0.90;;
21472;SDS011;10898;48.072;11.682;2023-01-13T03:11:09;2.08;;;0.90;;
21472;SDS011;10898;48.072;11.682;2023-01-13T03:15:41;1.15;;;1.05;;
21472;SDS011;10898;48.072;11.682;2023-01-13T03:17:48;1.67;;;0.80;;
21472;SDS011;10898;48.072;11.682;2023-01-13T03:22:17;1.02;;;0.80;;
21472;SDS011;10898;48.072;11.682;2023-01-13T03:24:39;0.95;;;0.88;;
21472;SDS011;10898;48.072;11.682;2023-01-13T03:26:55;1.48;;;0.82;;
21472;SDS011;10898;48.072;11.682;2023-01-13T03:31:35;0.70;;;0.70;;
21472;SDS011;10898;48.072;11.682;2023-01-13T03:33:41;1.05;;;0.90;;
21472;SDS011;10898;48.072;11.682;2023-01-13T03:35:47;0.80;;;0.80;;
21472;SDS011;10898;48.072;11.682;2023-01-13T03:37:52;1.52;;;0.80;;
21472;SDS011;10898;48.072;11.682;2023-01-13T03:39:58;0.80;;;0.80;;
21472;SDS011;10898;48.072;11.682;2023-01-13T03:42:03;1.05;;;0.95;;
21472;SDS011;10898;48.072;11.682;2023-01-13T03:46:28;3.00;;;0.90;;
21472;SDS011;10898;48.072;11.682;2023-01-13T03:48:34;0.80;;;0.80;;
21472;SDS011;10898;48.072;11.682;2023-01-13T03:50:47;1.10;;;0.75;;
21472;SDS011;10898;48.072;11.682;2023-01-13T03:52:52;1.10;;;1.00;;
21472;SDS011;10898;48.072;11.682;2023-01-13T03:54:58;0.85;;;0.85;;
21472;SDS011;10898;48.072;11.682;2023-01-13T03:57:04;0.95;;;0.95;;
21472;SDS011;10898;48.072;11.682;2023-01-13T03:59:09;1.45;;;0.98;;
21472;SDS011;10898;48.072;11.682;2023-01-13T04:01:25;0.90;;;0.90;;
21472;SDS011;10898;48.072;11.682;2023-01-13T04:03:35;1.30;;;0.85;;
21472;SDS011;10898;48.072;11.682;2023-01-13T04:05:40;1.00;;;0.90;;
21472;SDS011;10898;48.072;11.682;2023-01-13T04:07:49;0.80;;;0.80;;
21472;SDS011;10898;48.072;11.682;2023-01-13T04:09:56;1.10;;;1.00;;
21472;SDS011;10898;48.072;11.682;2023-01-13T04:12:36;1.48;;;1.27;;
21472;SDS011;10898;48.072;11.682;2023-01-13T04:14:50;2.90;;;1.30;;
21472;SDS011;10898;48.072;11.682;2023-01-13T04:16:53;2.58;;;1.65;;
21472;SDS011;10898;48.072;11.682;2023-01-13T04:18:56;1.52;;;1.30;;
21472;SDS011;10898;48.072;11.682;2023-01-13T04:20:59;1.50;;;1.40;;
21472;SDS011;10898;48.072;11.682;2023-01-13T04:23:01;1.55;;;1.35;;
21472;SDS011;10898;48.072;11.682;2023-01-13T04:25:04;2.15;;;1.40;;
21472;SDS011;10898;48.072;11.682;2023-01-13T04:27:06;2.38;;;1.70;;
21472;SDS011;10898;48.072;11.682;2023-01-13T04:29:08;1.85;;;1.40;;
21472;SDS011;10898;48.072;11.682;2023-01-13T04:31:11;1.67;;;1.30;;
21472;SDS011;10898;48.072;11.682;2023-01-13T04:33:14;1.38;;;1.20;;
21472;SDS011;10898;48.072;11.682;2023-01-13T04:35:16;1.10;;;1.00;;
21472;SDS011;10898;48.072;11.682;2023-01-13T04:37:18;1.70;;;1.10;;
21472;SDS011;10898;48.072;11.682;2023-01-13T04:39:20;1.40;;;1.30;;
21472;SDS011;10898;48.072;11.682;2023-01-13T04:41:23;1.08;;;1.02;;
21472;SDS011;10898;48.072;11.682;2023-01-13T04:43:25;1.88;;;1.10;;
21472;SDS011;10898;48.072;11.682;2023-01-13T04:45:27;1.08;;;0.98;;
21472;SDS011;10898;48.072;11.682;2023-01-13T04:47:29;0.98;;;0.88;;
21472;SDS011;10898;48.072;11.682;2023-01-13T04:49:31;2.15;;;0.98;;
21472;SDS011;10898;48.072;11.682;2023-01-13T04:51:34;0.80;;;0.80;;
21472;SDS011;10898;48.072;11.682;2023-01-13T04:53:36;1.33;;;1.00;;
21472;SDS011;10898;48.072;11.682;2023-01-13T04:55:38;0.77;;;0.77;;
21472;SDS011;10898;48.072;11.682;2023-01-13T04:57:40;1.10;;;1.00;;
21472;SDS011;10898;48.072;11.682;2023-01-13T04:59:43;1.08;;;0.98;;
21472;SDS011;10898;48.072;11.682;2023-01-13T05:01:45;0.95;;;0.80;;
21472;SDS011;10898;48.072;11.682;2023-01-13T05:03:47;1.10;;;1.10;;
21472;SDS011;10898;48.072;11.682;2023-01-13T05:05:50;1.58;;;0.90;;
21472;SDS011;10898;48.072;11.682;2023-01-13T05:07:53;2.40;;;0.90;;
21472;SDS011;10898;48.072;11.682;2023-01-13T05:09:55;2.15;;;0.90;;
21472;SDS011;10898;48.072;11.682;2023-01-13T05:11:57;1.83;;;0.90;;
21472;SDS011;10898;48.072;11.682;2023-01-13T05:14:18;2.20;;;0.90;;
21472;SDS011;10898;48.072;11.682;2023-01-13T05:16:39;0.63;;;0.60;;
21472;SDS011;10898;48.072;11.682;2023-01-13T05:19:00;0.82;;;0.80;;
21472;SDS011;10898;48.072;11.682;2023-01-13T05:21:02;0.70;;;0.70;;
21472;SDS011;10898;48.072;11.682;2023-01-13T05:23:04;0.77;;;0.70;;
21472;SDS011;10898;48.072;11.682;2023-01-13T05:25:26;0.98;;;0.85;;
21472;SDS011;10898;48.072;11.682;2023-01-13T05:27:28;0.63;;;0.63;;
21472;SDS011;10898;48.072;11.682;2023-01-13T05:29:30;0.80;;;0.80;;
21472;SDS011;10898;48.072;11.682;2023-01-13T05:31:32;0.90;;;0.90;;
21472;SDS011;10898;48.072;11.682;2023-01-13T05:33:35;1.05;;;0.90;;
21472;SDS011;10898;48.072;11.682;2023-01-13T05:35:37;2.55;;;1.00;;
21472;SDS011;10898;48.072;11.682;2023-01-13T05:39:42;1.00;;;0.70;;
21472;SDS011;10898;48.072;11.682;2023-01-13T05:42:02;1.45;;;1.05;;
21472;SDS011;10898;48.072;11.682;2023-01-13T05:44:23;0.80;;;0.80;;
21472;SDS011;10898;48.072;11.682;2023-01-13T05:46:26;1.40;;;0.85;;
21472;SDS011;10898;48.072;11.682;2023-01-13T05:50:33;0.98;;;0.95;;
21472;SDS011;10898;48.072;11.682;2023-01-13T05:52:35;0.82;;;0.80;;
21472;SDS011;10898;48.072;11.682;2023-01-13T05:54:37;1.20;;;0.80;;
21472;SDS011;10898;48.072;11.682;2023-01-13T05:56:41;0.60;;;0.60;;
21472;SDS011;10898;48.072;11.682;2023-01-13T05:58:43;0.90;;;0.90;;
21472;SDS011;10898;48.072;11.682;2023-01-13T06:00:45;0.70;;;0.70;;
21472;SDS011;10898;48.072;11.682;2023-01-13T06:02:48;0.80;;;0.80;;
21472;SDS011;10898;48.072;11.682;2023-01-13T06:04:50;1.13;;;0.60;;
21472;SDS011;10898;48.072;11.682;2023-01-13T06:06:52;0.77;;;0.77;;
21472;SDS011;10898;48.072;11.682;2023-01-13T06:08:56;0.60;;;0.60;;
21472;SDS011;10898;48.072;11.682;2023-01-13T06:10:58;1.42;;;0.88;;
21472;SDS011;10898;48.072;11.682;2023-01-13T06:13:00;0.80;;;0.80;;
21472;SDS011;10898;48.072;11.682;2023-01-13T06:15:02;0.85;;;0.85;;
21472;SDS011;10898;48.072;11.682;2023-01-13T06:17:06;0.80;;;0.70;;
21472;SDS011;10898;48.072;11.682;2023-01-13T06:19:08;0.70;;;0.70;;
21472;SDS011;10898;48.072;11.682;2023-01-13T06:21:13;0.75;;;0.70;;
21472;SDS011;10898;48.072;11.682;2023-01-13T06:23:15;1.27;;;0.93;;
21472;SDS011;10898;48.072;11.682;2023-01-13T06:27:23;0.60;;;0.60;;
21472;SDS011;10898;48.072;11.682;2023-01-13T06:29:25;0.70;;;0.70;;
21472;SDS011;10898;48.072;11.682;2023-01-13T06:31:27;0.93;;;0.93;;
21472;SDS011;10898;48.072;11.682;2023-01-13T06:33:32;1.58;;;1.13;;
21472;SDS011;10898;48.072;11.682;2023-01-13T06:35:34;6.00;;;2.10;;
21472;SDS011;10898;48.072;11.682;2023-01-13T06:37:38;1.10;;;1.00;;
21472;SDS011;10898;48.072;11.682;2023-01-13T06:39:41;1.20;;;0.90;;
21472;SDS011;10898;48.072;11.682;2023-01-13T06:41:43;1.02;;;0.90;;
21472;SDS011;10898;48.072;11.682;2023-01-13T06:44:04;0.70;;;0.70;;
21472;SDS011;10898;48.072;11.682;2023-01-13T06:46:06;0.70;;;0.70;;
21472;SDS011;10898;48.072;11.682;2023-01-13T06:48:09;0.68;;;0.60;;
21472;SDS011;10898;48.072;11.682;2023-01-13T06:50:11;1.42;;;0.60;;
21472;SDS011;10898;48.072;11.682;2023-01-13T06:52:13;0.70;;;0.70;;
21472;SDS011;10898;48.072;11.682;2023-01-13T06:54:15;0.70;;;0.70;;
21472;SDS011;10898;48.072;11.682;2023-01-13T06:56:18;1.80;;;0.80;;
21472;SDS011;10898;48.072;11.682;2023-01-13T06:58:20;0.80;;;0.80;;
21472;SDS011;10898;48.072;11.682;2023-01-13T07:00:23;1.05;;;0.70;;
21472;SDS011;10898;48.072;11.682;2023-01-13T07:02:25;1.33;;;0.70;;
21472;SDS011;10898;48.072;11.682;2023-01-13T07:04:28;0.70;;;0.70;;
21472;SDS011;10898;48.072;11.682;2023-01-13T07:06:30;0.95;;;0.90;;
21472;SDS011;10898;48.072;11.682;2023-01-13T07:08:32;0.60;;;0.60;;
21472;SDS011;10898;48.072;11.682;2023-01-13T07:10:35;0.70;;;0.70;;
21472;SDS011;10898;48.072;11.682;2023-01-13T07:14:59;0.65;;;0.65;;
21472;SDS011;10898;48.072;11.682;2023-01-13T07:17:20;0.88;;;0.80;;
21472;SDS011;10898;48.072;11.682;2023-01-13T07:19:25;0.90;;;0.88;;
21472;SDS011;10898;48.072;11.682;2023-01-13T07:21:27;0.95;;;0.95;;
21472;SDS011;10898;48.072;11.682;2023-01-13T07:23:30;1.27;;;0.85;;
21472;SDS011;10898;48.072;11.682;2023-01-13T07:25:32;0.80;;;0.80;;
21472;SDS011;10898;48.072;11.682;2023-01-13T07:27:35;0.75;;;0.75;;
21472;SDS011;10898;48.072;11.682;2023-01-13T07:29:37;0.80;;;0.80;;
21472;SDS011;10898;48.072;11.682;2023-01-13T07:31:39;1.38;;;0.70;;
21472;SDS011;10898;48.072;11.682;2023-01-13T07:33:42;0.88;;;0.80;;
21472;SDS011;10898;48.072;11.682;2023-01-13T07:35:46;0.75;;;0.75;;
21472;SDS011;10898;48.072;11.682;2023-01-13T07:37:48;1.05;;;0.70;;
21472;SDS011;10898;48.072;11.682;2023-01-13T07:39:51;0.80;;;0.80;;
21472;SDS011;10898;48.072;11.682;2023-01-13T07:41:53;2.10;;;0.90;;
21472;SDS011;10898;48.072;11.682;2023-01-13T07:44:14;0.65;;;0.65;;
21472;SDS011;10898;48.072;11.682;2023-01-13T07:46:16;3.28;;;0.90;;
21472;SDS011;10898;48.072;11.682;2023-01-13T07:48:18;0.93;;;0.90;;
21472;SDS011;10898;48.072;11.682;2023-01-13T07:50:20;0.98;;;0.90;;
21472;SDS011;10898;48.072;11.682;2023-01-13T07:52:23;0.98;;;0.80;;
21472;SDS011;10898;48.072;11.682;2023-01-13T07:54:26;1.15;;;1.02;;
21472;SDS011;10898;48.072;11.682;2023-01-13T07:56:40;0.85;;;0.77;;
21472;SDS011;10898;48.072;11.682;2023-01-13T07:58:42;0.90;;;0.90;;
21472;SDS011;10898;48.072;11.682;2023-01-13T08:00:50;1.02;;;0.93;;
21472;SDS011;10898;48.072;11.682;2023-01-13T08:04:55;0.93;;;0.93;;
21472;SDS011;10898;48.072;11.682;2023-01-13T08:06:58;2.28;;;0.90;;
21472;SDS011;10898;48.072;11.682;2023-01-13T08:09:00;0.80;;;0.80;;
21472;SDS011;10898;48.072;11.682;2023-01-13T08:11:03;2.35;;;1.20;;
21472;SDS011;10898;48.072;11.682;2023-01-13T08:13:11;1.00;;;1.00;;
21472;SDS011;10898;48.072;11.682;2023-01-13T08:15:18;1.10;;;1.00;;
21472;SDS011;10898;48.072;11.682;2023-01-13T08:17:20;1.55;;;1.40;;
21472;SDS011;10898;48.072;11.682;2023-01-13T08:19:22;1.48;;;1.00;;
21472;SDS011;10898;48.072;11.682;2023-01-13T08:21:24;1.02;;;0.95;;
21472;SDS011;10898;48.072;11.682;2023-01-13T08:23:27;1.10;;;1.00;;
21472;SDS011;10898;48.072;11.682;2023-01-13T08:25:29;1.38;;;1.23;;
21472;SDS011;10898;48.072;11.682;2023-01-13T08:27:32;0.80;;;0.80;;
21472;SDS011;10898;48.072;11.682;2023-01-13T08:29:34;2.83;;;0.80;;
21472;SDS011;10898;48.072;11.682;2023-01-13T08:31:36;0.75;;;0.70;;
21472;SDS011;10898;48.072;11.682;2023-01-13T08:33:38;1.00;;;0.90;;
21472;SDS011;10898;48.072;11.682;2023-01-13T08:37:43;0.90;;;0.90;;
21472;SDS011;10898;48.072;11.682;2023-01-13T08:41:48;1.45;;;0.82;;
21472;SDS011;10898;48.072;11.682;2023-01-13T08:43:56;1.27;;;0.88;;
21472;SDS011;10898;48.072;11.682;2023-01-13T08:45:59;0.70;;;0.70;;
21472;SDS011;10898;48.072;11.682;2023-01-13T08:48:04;0.70;;;0.70;;
21472;SDS011;10898;48.072;11.682;2023-01-13T08:50:07;0.73;;;0.73;;
21472;SDS011;10898;48.072;11.682;2023-01-13T08:54:11;0.70;;;0.70;;
21472;SDS011;10898;48.072;11.682;2023-01-13T08:56:14;0.95;;;0.95;;
21472;SDS011;10898;48.072;11.682;2023-01-13T08:58:17;0.82;;;0.82;;
21472;SDS011;10898;48.072;11.682;2023-01-13T09:00:19;0.70;;;0.70;;
21472;SDS011;10898;48.072;11.682;2023-01-13T09:02:22;1.27;;;0.90;;
21472;SDS011;10898;48.072;11.682;2023-01-13T09:04:25;1.38;;;0.93;;
21472;SDS011;10898;48.072;11.682;2023-01-13T09:06:28;0.93;;;0.88;;
21472;SDS011;10898;48.072;11.682;2023-01-13T09:08:30;1.45;;;0.90;;
21472;SDS011;10898;48.072;11.682;2023-01-13T09:10:32;2.00;;;1.60;;
21472;SDS011;10898;48.072;11.682;2023-01-13T09:12:35;1.20;;;1.10;;
21472;SDS011;10898;48.072;11.682;2023-01-13T09:14:56;1.20;;;1.10;;
21472;SDS011;10898;48.072;11.682;2023-01-13T09:16:59;1.30;;;1.05;;
21472;SDS011;10898;48.072;11.682;2023-01-13T09:21:03;1.20;;;0.93;;
21472;SDS011;10898;48.072;11.682;2023-01-13T09:23:06;0.82;;;0.80;;
21472;SDS011;10898;48.072;11.682;2023-01-13T09:25:11;2.55;;;0.80;;
21472;SDS011;10898;48.072;11.682;2023-01-13T09:27:14;3.22;;;0.95;;
21472;SDS011;10898;48.072;11.682;2023-01-13T09:29:16;0.77;;;0.77;;
21472;SDS011;10898;48.072;11.682;2023-01-13T09:31:19;1.05;;;0.88;;
21472;SDS011;10898;48.072;11.682;2023-01-13T09:33:21;1.00;;;0.90;;
21472;SDS011;10898;48.072;11.682;2023-01-13T09:35:42;0.90;;;0.90;;
21472;SDS011;10898;48.072;11.682;2023-01-13T09:37:44;1.30;;;0.90;;
21472;SDS011;10898;48.072;11.682;2023-01-13T09:39:46;1.23;;;1.00;;
21472;SDS011;10898;48.072;11.682;2023-01-13T09:41:49;0.93;;;0.85;;
21472;SDS011;10898;48.072;11.682;2023-01-13T09:44:19;1.60;;;1.10;;
21472;SDS011;10898;48.072;11.682;2023-01-13T09:46:25;1.98;;;0.93;;
21472;SDS011;10898;48.072;11.682;2023-01-13T09:48:47;1.73;;;1.10;;
21472;SDS011;10898;48.072;11.682;2023-01-13T09:53:10;1.25;;;0.90;;
21472;SDS011;10898;48.072;11.682;2023-01-13T09:57:17;1.25;;;1.15;;
21472;SDS011;10898;48.072;11.682;2023-01-13T09:59:20;1.38;;;0.98;;
21472;SDS011;10898;48.072;11.682;2023-01-13T10:01:30;0.70;;;0.70;;
21472;SDS011;10898;48.072;11.682;2023-01-13T10:03:33;1.38;;;0.80;;
21472;SDS011;10898;48.072;11.682;2023-01-13T10:05:37;1.60;;;1.00;;
21472;SDS011;10898;48.072;11.682;2023-01-13T10:07:41;0.90;;;0.60;;
21472;SDS011;10898;48.072;11.682;2023-01-13T10:09:48;1.00;;;0.80;;
21472;SDS011;10898;48.072;11.682;2023-01-13T10:11:52;0.80;;;0.80;;
21472;SDS011;10898;48.072;11.682;2023-01-13T10:14:21;1.38;;;0.90;;
21472;SDS011;10898;48.072;11.682;2023-01-13T10:16:33;0.95;;;0.85;;
21472;SDS011;10898;48.072;11.682;2023-01-13T10:25:59;1.33;;;1.23;;
21472;SDS011;10898;48.072;11.682;2023-01-13T10:28:09;0.73;;;0.73;;
21472;SDS011;10898;48.072;11.682;2023-01-13T10:30:19;0.93;;;0.93;;
21472;SDS011;10898;48.072;11.682;2023-01-13T10:32:21;0.70;;;0.70;;
21472;SDS011;10898;48.072;11.682;2023-01-13T10:34:24;0.60;;;0.60;;
21472;SDS011;10898;48.072;11.682;2023-01-13T10:38:29;0.77;;;0.70;;
21472;SDS011;10898;48.072;11.682;2023-01-13T10:40:37;0.88;;;0.70;;
21472;SDS011;10898;48.072;11.682;2023-01-13T10:42:47;0.70;;;0.70;;
21472;SDS011;10898;48.072;11.682;2023-01-13T10:44:50;2.15;;;1.20;;
21472;SDS011;10898;48.072;11.682;2023-01-13T10:46:54;0.80;;;0.80;;
21472;SDS011;10898;48.072;11.682;2023-01-13T10:48:58;1.05;;;0.77;;
21472;SDS011;10898;48.072;11.682;2023-01-13T10:53:16;0.60;;;0.60;;
21472;SDS011;10898;48.072;11.682;2023-01-13T10:55:34;0.90;;;0.90;;
21472;SDS011;10898;48.072;11.682;2023-01-13T10:57:40;1.23;;;0.80;;
21472;SDS011;10898;48.072;11.682;2023-01-13T10:59:42;0.85;;;0.85;;
21472;SDS011;10898;48.072;11.682;2023-01-13T11:02:13;1.00;;;1.00;;
21472;SDS011;10898;48.072;11.682;2023-01-13T11:04:35;0.70;;;0.70;;
21472;SDS011;10898;48.072;11.682;2023-01-13T11:06:38;0.80;;;0.80;;
21472;SDS011;10898;48.072;11.682;2023-01-13T11:08:47;0.60;;;0.60;;
21472;SDS011;10898;48.072;11.682;2023-01-13T11:10:52;0.70;;;0.70;;
21472;SDS011;10898;48.072;11.682;2023-01-13T11:13:12;0.70;;;0.63;;
21472;SDS011;10898;48.072;11.682;2023-01-13T11:15:19;0.77;;;0.77;;
21472;SDS011;10898;48.072;11.682;2023-01-13T11:19:30;0.55;;;0.55;;
21472;SDS011;10898;48.072;11.682;2023-01-13T11:21:34;0.80;;;0.80;;
21472;SDS011;10898;48.072;11.682;2023-01-13T11:23:42;0.88;;;0.70;;
21472;SDS011;10898;48.072;11.682;2023-01-13T11:25:48;1.50;;;0.60;;
21472;SDS011;10898;48.072;11.682;2023-01-13T11:32:21;1.02;;;0.57;;
21472;SDS011;10898;48.072;11.682;2023-01-13T11:36:38;0.65;;;0.65;;
21472;SDS011;10898;48.072;11.682;2023-01-13T11:40:48;1.23;;;0.60;;
21472;SDS011;10898;48.072;11.682;2023-01-13T11:42:53;0.60;;;0.60;;
21472;SDS011;10898;48.072;11.682;2023-01-13T11:47:19;0.60;;;0.60;;
21472;SDS011;10898;48.072;11.682;2023-01-13T11:49:25;1.30;;;0.63;;
21472;SDS011;10898;48.072;11.682;2023-01-13T11:51:36;1.17;;;0.60;;
21472;SDS011;10898;48.072;11.682;2023-01-13T12:00:25;0.60;;;0.60;;
21472;SDS011;10898;48.072;11.682;2023-01-13T12:03:03;0.70;;;0.70;;
21472;SDS011;10898;48.072;11.682;2023-01-13T12:05:02;0.60;;;0.60;;
21472;SDS011;10898;48.072;11.682;2023-01-13T12:07:13;0.85;;;0.60;;
21472;SDS011;10898;48.072;11.682;2023-01-13T12:09:52;0.60;;;0.60;;
21472;SDS011;10898;48.072;11.682;2023-01-13T12:14:19;0.60;;;0.60;;
21472;SDS011;10898;48.072;11.682;2023-01-13T12:23:11;0.70;;;0.70;;
21472;SDS011;10898;48.072;11.682;2023-01-13T12:25:19;0.88;;;0.77;;
21472;SDS011;10898;48.072;11.682;2023-01-13T12:27:32;0.80;;;0.80;;
21472;SDS011;10898;48.072;11.682;2023-01-13T12:29:40;1.27;;;0.85;;
21472;SDS011;10898;48.072;11.682;2023-01-13T12:31:42;0.70;;;0.70;;
21472;SDS011;10898;48.072;11.682;2023-01-13T12:38:20;0.85;;;0.55;;
21472;SDS011;10898;48.072;11.682;2023-01-13T12:47:31;0.90;;;0.90;;
21472;SDS011;10898;48.072;11.682;2023-01-13T12:49:33;1.23;;;1.00;;
21472;SDS011;10898;48.072;11.682;2023-01-13T12:51:59;0.75;;;0.70;;
21472;SDS011;10898;48.072;11.682;2023-01-13T12:54:00;0.60;;;0.60;;
21472;SDS011;10898;48.072;11.682;2023-01-13T12:58:27;0.80;;;0.80;;
21472;SDS011;10898;48.072;11.682;2023-01-13T13:01:14;0.80;;;0.80;;
21472;SDS011;10898;48.072;11.682;2023-01-13T13:05:28;1.13;;;0.73;;
21472;SDS011;10898;48.072;11.682;2023-01-13T13:07:38;1.10;;;0.80;;
21472;SDS011;10898;48.072;11.682;2023-01-13T13:09:46;0.85;;;0.85;;
21472;SDS011;10898;48.072;11.682;2023-01-13T13:11:50;1.00;;;1.00;;
21472;SDS011;10898;48.072;11.682;2023-01-13T13:13:59;0.70;;;0.70;;
21472;SDS011;10898;48.072;11.682;2023-01-13T13:18:23;0.90;;;0.90;;
21472;SDS011;10898;48.072;11.682;2023-01-13T13:22:50;0.90;;;0.90;;
21472;SDS011;10898;48.072;11.682;2023-01-13T13:26:55;0.98;;;0.95;;
21472;SDS011;10898;48.072;11.682;2023-01-13T13:29:06;1.08;;;0.82;;
21472;SDS011;10898;48.072;11.682;2023-01-13T13:35:23;0.70;;;0.70;;
21472;SDS011;10898;48.072;11.682;2023-01-13T13:39:33;0.77;;;0.77;;
21472;SDS011;10898;48.072;11.682;2023-01-13T13:41:57;0.70;;;0.70;;
21472;SDS011;10898;48.072;11.682;2023-01-13T13:44:21;0.85;;;0.80;;
21472;SDS011;10898;48.072;11.682;2023-01-13T13:46:45;0.93;;;0.93;;
21472;SDS011;10898;48.072;11.682;2023-01-13T13:48:49;0.70;;;0.70;;
21472;SDS011;10898;48.072;11.682;2023-01-13T13:50:54;2.42;;;0.70;;
21472;SDS011;10898;48.072;11.682;2023-01-13T13:53:01;2.15;;;0.77;;
21472;SDS011;10898;48.072;11.682;2023-01-13T13:55:15;2.10;;;0.60;;
21472;SDS011;10898;48.072;11.682;2023-01-13T13:57:37;1.77;;;0.73;;
21472;SDS011;10898;48.072;11.682;2023-01-13T14:01:44;1.45;;;0.60;;
21472;SDS011;10898;48.072;11.682;2023-01-13T14:03:46;1.55;;;0.70;;
21472;SDS011;10898;48.072;11.682;2023-01-13T14:06:04;1.10;;;0.88;;
21472;SDS011;10898;48.072;11.682;2023-01-13T14:08:13;0.70;;;0.70;;
21472;SDS011;10898;48.072;11.682;2023-01-13T14:10:20;3.35;;;0.68;;
21472;SDS011;10898;48.072;11.682;2023-01-13T14:12:23;0.60;;;0.60;;
21472;SDS011;10898;48.072;11.682;2023-01-13T14:14:27;0.60;;;0.60;;
21472;SDS011;10898;48.072;11.682;2023-01-13T14:18:33;0.77;;;0.70;;
21472;SDS011;10898;48.072;11.682;2023-01-13T14:20:36;0.50;;;0.50;;
21472;SDS011;10898;48.072;11.682;2023-01-13T14:22:38;0.50;;;0.50;;
21472;SDS011;10898;48.072;11.682;2023-01-13T14:24:45;1.67;;;0.90;;
21472;SDS011;10898;48.072;11.682;2023-01-13T14:26:48;0.60;;;0.60;;
21472;SDS011;10898;48.072;11.682;2023-01-13T14:28:52;0.60;;;0.60;;
21472;SDS011;10898;48.072;11.682;2023-01-13T14:30:55;0.75;;;0.75;;